Appleton, Idaho
Current Conditions -  °F | °C
As of 12:53 PM on Monday 22 Dec 2014 (Local Time) from KJER Reporting Station
Broken Clouds Broken Clouds  
Wind Chill: -2°   Ceiling: 1300
Heat Index:   Visibility: 10mi
Dew Point:   Wind: 31mph
Humidity: 83%   Direction: 250°WSW
Pressure: 30.06"   Gusts: 41mph
Location:  42.7238°N, 114.338°W
Report Text: KJER 221953Z AUTO 25027G36KT 10SM BKN013 04/02 A3006 RMK AO2 PK WND 25038/1918 SLP192 T00440017
Loading
Personal Weather Stations






























Interactive Weather Map New forecast layout! Learn more

10-Day Weather Forecast

Advertisements
Track Severe Weather on mobile